Time;durP1;ratioP1;P1;durP2;ratioP2;P2;SDS_P1;SDS_P2;PMS_P1;PMS_P2;Temp;Humidity;BMP_temperature;BMP_pressure;BME280_temperature;BME280_humidity;BME280_pressure;Samples;Min_cycle;Max_cycle;Signal;HPM_P1;HPM_P2
2022/02/19 00:01:44;;;;;;;5.38;0.73;;;7.50;67.90;;;;;;5030049;28;20192;-67
2022/02/19 00:04:11;;;;;;;2.22;0.85;;;7.50;67.80;;;;;;5032669;28;20238;-67
2022/02/19 00:06:39;;;;;;;2.13;0.60;;;7.50;67.00;;;;;;5026709;28;20606;-67
2022/02/19 00:09:06;;;;;;;1.60;0.80;;;7.40;67.20;;;;;;5021865;28;20223;-67
2022/02/19 00:11:33;;;;;;;1.80;0.77;;;7.40;65.40;;;;;;5017113;28;20272;-67
2022/02/19 00:14:00;;;;;;;2.33;0.77;;;7.40;65.90;;;;;;5024013;28;20645;-68
2022/02/19 00:16:27;;;;;;;1.45;0.70;;;7.40;66.30;;;;;;5015306;28;20246;-67
2022/02/19 00:18:54;;;;;;;2.47;0.68;;;7.40;65.60;;;;;;5032104;28;20551;-67
2022/02/19 00:21:21;;;;;;;1.80;0.70;;;7.40;66.20;;;;;;5029896;28;20257;-67
2022/02/19 00:23:49;;;;;;;1.98;0.90;;;7.40;67.20;;;;;;5012647;28;20250;-69
2022/02/19 00:26:16;;;;;;;1.92;0.82;;;7.40;67.60;;;;;;5012664;28;20187;-68
2022/02/19 00:28:43;;;;;;;1.95;0.73;;;7.30;68.00;;;;;;5031937;28;20253;-67
2022/02/19 00:31:10;;;;;;;1.60;0.60;;;7.30;68.30;;;;;;5029728;28;20227;-71
2022/02/19 00:33:37;;;;;;;1.95;0.80;;;7.30;67.80;;;;;;5031901;28;20226;-67
2022/02/19 00:36:04;;;;;;;3.88;0.85;;;7.30;68.10;;;;;;5030349;28;20280;-67
2022/02/19 00:38:31;;;;;;;1.88;0.70;;;7.30;67.90;;;;;;5012392;28;20195;-67
2022/02/19 00:41:01;;;;;;;1.60;0.60;;;7.30;68.40;;;;;;5012208;28;20195;-73
2022/02/19 00:43:28;;;;;;;3.35;0.63;;;7.30;68.80;;;;;;5032111;28;20191;-67
2022/02/19 00:45:56;;;;;;;1.40;0.57;;;7.30;70.00;;;;;;5015854;28;20183;-67
2022/02/19 00:48:23;;;;;;;3.50;0.80;;;7.20;71.00;;;;;;5012241;28;20213;-67
2022/02/19 00:50:50;;;;;;;1.50;0.50;;;7.20;70.70;;;;;;5025805;28;20720;-68
2022/02/19 00:53:17;;;;;;;2.08;0.70;;;7.20;71.00;;;;;;5031988;28;20233;-67
2022/02/19 00:55:44;;;;;;;1.50;0.50;;;7.20;71.20;;;;;;5025129;28;20301;-68
2022/02/19 00:58:12;;;;;;;1.70;0.80;;;7.20;71.70;;;;;;5032048;28;20191;-68
2022/02/19 01:00:39;;;;;;;1.80;0.75;;;7.20;72.00;;;;;;5027362;28;20260;-68
2022/02/19 01:03:06;;;;;;;1.88;0.60;;;7.20;72.40;;;;;;5032321;28;20493;-67
2022/02/19 01:05:36;;;;;;;1.58;0.50;;;7.20;72.40;;;;;;5021068;28;20291;-68
2022/02/19 01:08:03;;;;;;;4.60;0.70;;;7.20;72.20;;;;;;5012280;28;20310;-69
2022/02/19 01:10:30;;;;;;;1.40;0.50;;;7.10;72.20;;;;;;5021108;28;20187;-67
2022/02/19 01:12:57;;;;;;;1.30;0.50;;;7.20;72.50;;;;;;5034241;28;20288;-67
2022/02/19 01:15:25;;;;;;;1.70;0.60;;;7.10;72.50;;;;;;5015839;28;20713;-67
2022/02/19 01:17:53;;;;;;;2.60;0.60;;;7.10;72.10;;;;;;5016074;28;20586;-70
2022/02/19 01:20:21;;;;;;;1.50;0.65;;;7.10;72.50;;;;;;5036178;28;20199;-67
2022/02/19 01:22:48;;;;;;;1.50;0.60;;;7.00;72.20;;;;;;5035685;28;20191;-67
2022/02/19 01:25:15;;;;;;;1.50;0.50;;;7.00;72.70;;;;;;5016460;28;20215;-68
2022/02/19 01:27:42;;;;;;;2.17;0.65;;;7.00;72.90;;;;;;5020756;28;20214;-67
2022/02/19 01:30:10;;;;;;;2.75;0.60;;;7.10;73.20;;;;;;5036042;28;20226;-68
2022/02/19 01:32:38;;;;;;;1.60;0.60;;;7.00;72.80;;;;;;5030967;28;20211;-67
2022/02/19 01:35:05;;;;;;;1.40;0.50;;;7.00;72.60;;;;;;5016094;28;20188;-67
2022/02/19 01:37:32;;;;;;;1.60;0.60;;;7.00;73.00;;;;;;5017895;28;20194;-67
2022/02/19 01:39:59;;;;;;;1.50;0.55;;;7.00;73.10;;;;;;5035719;28;20237;-66
2022/02/19 01:42:27;;;;;;;2.60;0.80;;;7.00;73.00;;;;;;5032149;28;20227;-67
2022/02/19 01:44:54;;;;;;;1.60;0.52;;;7.00;73.10;;;;;;5035366;28;20187;-67
2022/02/19 01:47:21;;;;;;;1.50;0.60;;;7.00;73.50;;;;;;5018051;28;20223;-68
2022/02/19 01:49:50;;;;;;;1.60;0.50;;;7.10;73.70;;;;;;5015404;28;20191;-67
2022/02/19 01:52:18;;;;;;;5.00;0.70;;;7.10;73.60;;;;;;5019516;28;20560;-67
2022/02/19 01:54:47;;;;;;;1.50;0.60;;;7.10;73.50;;;;;;5015548;28;20196;-67
2022/02/19 01:57:14;;;;;;;3.15;0.65;;;7.10;73.60;;;;;;5029228;28;20668;-67
2022/02/19 01:59:42;;;;;;;1.83;0.70;;;7.10;73.40;;;;;;5035083;28;20650;-69
2022/02/19 02:02:09;;;;;;;1.60;0.60;;;7.20;73.70;;;;;;5031986;28;20202;-67
2022/02/19 02:04:36;;;;;;;2.35;0.70;;;7.20;74.00;;;;;;5035470;28;20195;-67
2022/02/19 02:07:05;;;;;;;1.50;0.60;;;7.20;73.90;;;;;;5019699;28;20265;-67
2022/02/19 02:09:35;;;;;;;2.08;0.82;;;7.20;73.70;;;;;;5015325;28;20192;-67
2022/02/19 02:12:03;;;;;;;1.50;0.60;;;7.20;73.70;;;;;;5028493;28;20194;-67
2022/02/19 02:14:30;;;;;;;1.50;0.50;;;7.30;75.10;;;;;;5026931;28;20226;-67
2022/02/19 02:16:57;;;;;;;1.70;0.70;;;7.30;74.10;;;;;;5015122;28;20305;-67
2022/02/19 02:19:24;;;;;;;1.50;0.60;;;7.30;74.00;;;;;;5020544;28;20190;-67
2022/02/19 02:21:52;;;;;;;2.90;0.60;;;7.20;73.40;;;;;;5034341;28;20223;-67
2022/02/19 02:24:20;;;;;;;1.40;0.50;;;7.20;73.50;;;;;;5028599;28;20187;-67
2022/02/19 02:26:48;;;;;;;1.50;0.68;;;7.20;74.20;;;;;;5014387;28;20635;-67
2022/02/19 02:29:15;;;;;;;1.50;0.50;;;7.10;73.90;;;;;;5013938;28;20179;-68
2022/02/19 02:31:42;;;;;;;1.50;0.60;;;7.10;73.30;;;;;;5015083;28;20273;-67
2022/02/19 02:34:09;;;;;;;1.40;0.60;;;7.00;73.10;;;;;;5019067;28;20214;-68
2022/02/19 02:36:36;;;;;;;1.90;0.70;;;7.00;73.20;;;;;;5031661;28;20277;-67
2022/02/19 02:39:04;;;;;;;1.40;0.50;;;6.90;73.20;;;;;;5034208;28;20218;-67
2022/02/19 02:41:31;;;;;;;1.45;0.50;;;6.90;73.70;;;;;;5030572;28;20183;-67
2022/02/19 02:43:58;;;;;;;1.92;0.50;;;6.80;73.70;;;;;;5014434;28;20227;-69
2022/02/19 02:46:25;;;;;;;1.48;0.65;;;6.80;74.50;;;;;;5013942;28;20188;-67
2022/02/19 02:48:52;;;;;;;4.13;0.85;;;6.70;74.00;;;;;;5014606;28;20192;-71
2022/02/19 02:51:19;;;;;;;2.75;0.60;;;6.70;73.80;;;;;;5033563;28;20191;-68
2022/02/19 02:53:47;;;;;;;3.33;0.90;;;6.70;73.50;;;;;;5031309;28;20199;-67
2022/02/19 02:56:15;;;;;;;6.22;0.98;;;6.70;74.30;;;;;;5029420;28;20388;-67
2022/02/19 02:58:42;;;;;;;3.10;0.85;;;6.70;74.80;;;;;;5032549;28;20191;-67
2022/02/19 03:01:10;;;;;;;1.50;0.60;;;6.70;74.90;;;;;;5021548;28;20215;-68
2022/02/19 03:03:37;;;;;;;4.28;0.80;;;6.70;75.00;;;;;;5034058;28;20195;-71
2022/02/19 03:06:04;;;;;;;2.85;0.90;;;6.70;74.90;;;;;;5033288;28;20603;-67
2022/02/19 03:08:32;;;;;;;1.45;0.70;;;6.70;74.30;;;;;;5033810;28;20282;-67
2022/02/19 03:10:59;;;;;;;1.52;0.73;;;6.60;74.90;;;;;;5014801;28;20688;-67
2022/02/19 03:13:27;;;;;;;1.60;0.70;;;6.60;74.80;;;;;;5013737;28;20223;-67
2022/02/19 03:15:54;;;;;;;1.70;0.60;;;6.50;75.20;;;;;;5013032;28;20212;-68
2022/02/19 03:18:21;;;;;;;1.50;0.60;;;6.50;75.60;;;;;;5012797;28;20231;-68
2022/02/19 03:20:48;;;;;;;2.97;1.65;;;6.50;75.90;;;;;;5028521;28;20583;-68
2022/02/19 03:23:14;;;;;;;1.70;0.68;;;6.60;75.20;;;;;;5033795;28;20266;-68
2022/02/19 03:25:42;;;;;;;2.92;0.60;;;6.50;74.90;;;;;;5018294;28;20215;-67
2022/02/19 03:28:09;;;;;;;1.50;0.60;;;6.50;75.10;;;;;;5013692;28;20223;-69
2022/02/19 03:30:37;;;;;;;2.88;0.77;;;6.60;75.10;;;;;;5026639;28;20233;-67
2022/02/19 03:33:04;;;;;;;4.18;0.77;;;6.60;74.90;;;;;;5028548;28;20211;-68
2022/02/19 03:35:31;;;;;;;2.20;0.60;;;6.60;74.40;;;;;;5013467;28;20317;-67
2022/02/19 03:37:58;;;;;;;3.42;0.70;;;6.50;75.10;;;;;;5015028;28;20211;-67
2022/02/19 03:40:25;;;;;;;2.80;0.90;;;6.50;75.00;;;;;;5029627;28;20227;-67
2022/02/19 03:42:52;;;;;;;1.60;0.70;;;6.50;74.90;;;;;;5012836;28;20674;-67
2022/02/19 03:45:19;;;;;;;2.35;0.70;;;6.50;74.40;;;;;;5013176;28;20188;-73
2022/02/19 03:47:47;;;;;;;2.65;0.70;;;6.40;74.20;;;;;;5033234;28;20375;-68
2022/02/19 03:50:17;;;;;;;2.28;0.70;;;6.50;74.10;;;;;;5032837;28;20639;-67
2022/02/19 03:52:45;;;;;;;2.55;0.80;;;6.50;74.10;;;;;;5012716;28;20195;-68
2022/02/19 03:55:11;;;;;;;4.15;0.68;;;6.50;74.30;;;;;;5031061;28;20613;-68
2022/02/19 03:57:39;;;;;;;1.50;0.70;;;6.50;74.60;;;;;;5032874;28;20673;-67
2022/02/19 04:00:11;;;;;;;1.83;0.80;;;6.50;74.30;;;;;;5015550;28;20242;-67
2022/02/19 04:02:38;;;;;;;1.60;0.55;;;6.50;74.20;;;;;;5028314;28;20274;-67
2022/02/19 04:05:09;;;;;;;2.40;0.75;;;6.40;74.00;;;;;;5017066;28;20187;-67
2022/02/19 04:07:36;;;;;;;1.95;0.90;;;6.40;74.50;;;;;;5012659;28;20662;-67
2022/02/19 04:10:04;;;;;;;2.05;0.70;;;6.40;74.60;;;;;;5013633;28;20195;-68
2022/02/19 04:12:31;;;;;;;2.58;0.80;;;6.40;75.50;;;;;;5014713;28;20727;-67
2022/02/19 04:14:58;;;;;;;2.95;0.80;;;6.30;74.20;;;;;;5033214;28;20630;-67
2022/02/19 04:17:25;;;;;;;1.55;0.70;;;6.30;74.60;;;;;;5030634;28;20277;-67
2022/02/19 04:19:53;;;;;;;5.53;0.90;;;6.20;74.70;;;;;;5013150;28;20569;-67
2022/02/19 04:22:22;;;;;;;2.20;0.73;;;6.20;75.10;;;;;;5013508;28;20202;-67
2022/02/19 04:24:49;;;;;;;6.38;0.95;;;6.30;75.10;;;;;;5033073;28;20191;-68
2022/02/19 04:27:17;;;;;;;3.15;1.30;;;6.20;75.00;;;;;;5029430;28;20273;-68
2022/02/19 04:29:44;;;;;;;2.50;0.80;;;6.30;74.90;;;;;;5033060;28;20226;-67
2022/02/19 04:32:11;;;;;;;2.13;0.75;;;6.30;74.90;;;;;;5030788;28;20187;-67
2022/02/19 04:34:39;;;;;;;2.35;0.80;;;6.30;74.20;;;;;;5013171;28;20199;-66
2022/02/19 04:37:06;;;;;;;5.53;1.27;;;6.20;73.80;;;;;;5012562;28;20316;-72
2022/02/19 04:39:34;;;;;;;4.60;0.80;;;6.30;73.90;;;;;;5031966;28;20234;-69
2022/02/19 04:42:01;;;;;;;1.70;0.73;;;6.20;72.90;;;;;;5032671;28;20233;-67
2022/02/19 04:44:28;;;;;;;4.97;1.00;;;6.20;72.10;;;;;;5018167;28;20305;-67
2022/02/19 04:46:55;;;;;;;5.25;0.80;;;6.20;71.60;;;;;;5031167;28;20198;-68
2022/02/19 04:49:22;;;;;;;4.55;0.80;;;6.20;71.60;;;;;;5032812;28;20528;-67
2022/02/19 04:51:49;;;;;;;5.20;0.70;;;6.10;70.80;;;;;;5031399;28;20183;-67
2022/02/19 04:54:19;;;;;;;2.70;0.65;;;6.10;70.50;;;;;;5032742;28;20187;-67
2022/02/19 04:56:47;;;;;;;1.83;0.70;;;6.00;69.80;;;;;;5016088;28;20605;-68
2022/02/19 04:59:14;;;;;;;3.05;0.95;;;6.10;70.00;;;;;;5012583;28;20223;-68
2022/02/19 05:01:41;;;;;;;3.15;0.80;;;6.00;69.80;;;;;;5015426;28;20187;-67
2022/02/19 05:04:09;;;;;;;4.25;0.80;;;6.00;69.60;;;;;;5032780;28;20649;-67
2022/02/19 05:06:36;;;;;;;6.60;1.30;;;6.00;69.20;;;;;;5018775;28;20183;-67
2022/02/19 05:09:03;;;;;;;3.50;0.90;;;6.00;68.90;;;;;;5012819;28;20531;-68
2022/02/19 05:11:30;;;;;;;3.63;1.52;;;6.00;68.60;;;;;;5023542;28;20269;-67
2022/02/19 05:13:58;;;;;;;3.35;1.27;;;6.10;67.70;;;;;;5032213;28;20720;-67
2022/02/19 05:16:25;;;;;;;2.45;0.93;;;6.00;65.60;;;;;;5020617;28;20215;-67
2022/02/19 05:18:52;;;;;;;3.30;1.10;;;6.00;65.10;;;;;;5014052;28;20687;-68
2022/02/19 05:21:19;;;;;;;5.60;1.05;;;6.00;64.20;;;;;;5032285;28;20696;-67
2022/02/19 05:23:46;;;;;;;2.75;1.02;;;6.00;63.90;;;;;;5025910;28;20219;-67
2022/02/19 05:26:13;;;;;;;2.58;0.98;;;5.90;63.70;;;;;;5012708;28;20227;-67
2022/02/19 05:28:41;;;;;;;2.72;1.15;;;5.90;63.90;;;;;;5028617;28;20187;-67
2022/02/19 05:31:11;;;;;;;5.93;1.10;;;5.90;63.70;;;;;;5022727;28;20195;-68
2022/02/19 05:33:38;;;;;;;3.13;0.88;;;5.90;63.50;;;;;;5012902;28;20643;-67
2022/02/19 05:36:05;;;;;;;3.78;0.90;;;5.90;62.90;;;;;;5019355;28;20245;-67
2022/02/19 05:38:32;;;;;;;4.65;1.00;;;6.00;63.00;;;;;;5032232;28;20255;-67
2022/02/19 05:40:59;;;;;;;4.93;1.40;;;6.00;63.30;;;;;;5024596;28;20274;-67
2022/02/19 05:43:26;;;;;;;6.60;1.30;;;5.90;62.60;;;;;;5012523;28;20229;-68
2022/02/19 05:45:53;;;;;;;3.40;1.00;;;5.90;62.90;;;;;;5016464;28;20241;-67
2022/02/19 05:48:21;;;;;;;5.65;1.23;;;5.90;62.90;;;;;;5027203;28;20230;-69
2022/02/19 05:50:49;;;;;;;6.45;1.25;;;5.90;63.30;;;;;;5013397;28;20184;-68
2022/02/19 05:53:17;;;;;;;5.50;0.95;;;5.90;63.40;;;;;;5032212;28;20252;-68
2022/02/19 05:55:44;;;;;;;4.25;1.40;;;5.90;63.90;;;;;;5030513;28;20222;-68
2022/02/19 05:58:11;;;;;;;4.40;1.50;;;5.90;63.90;;;;;;5015299;28;20255;-68
2022/02/19 06:00:38;;;;;;;3.17;1.08;;;5.90;63.80;;;;;;5016043;28;20625;-67
2022/02/19 06:03:05;;;;;;;6.93;1.55;;;5.90;64.00;;;;;;5035086;28;20187;-67
2022/02/19 06:05:33;;;;;;;4.95;1.80;;;5.80;64.40;;;;;;5023213;28;20227;-70
2022/02/19 06:08:00;;;;;;;5.65;1.52;;;5.80;64.90;;;;;;5022502;28;20269;-68
2022/02/19 06:10:27;;;;;;;3.30;0.90;;;5.90;65.10;;;;;;5035539;28;20489;-67
2022/02/19 06:12:54;;;;;;;4.28;1.67;;;5.90;65.20;;;;;;5027542;28;20220;-67
2022/02/19 06:15:21;;;;;;;2.28;1.00;;;5.90;65.00;;;;;;5015702;28;20231;-67
2022/02/19 06:17:48;;;;;;;4.80;1.55;;;5.90;65.40;;;;;;5020126;28;20563;-68
2022/02/19 06:20:15;;;;;;;9.63;1.38;;;5.90;65.40;;;;;;5035416;28;20223;-67
2022/02/19 06:23:13;;;;;;;8.02;1.27;;;6.00;65.20;;;;;;5030753;28;20212;-69
2022/02/19 06:25:43;;;;;;;6.10;0.98;;;6.00;64.80;;;;;;5014966;28;20222;-68
2022/02/19 06:28:10;;;;;;;5.53;1.00;;;6.00;64.70;;;;;;5022274;28;20654;-67
2022/02/19 06:30:36;;;;;;;5.15;1.25;;;6.00;65.00;;;;;;5034827;28;20281;-67
2022/02/19 06:33:03;;;;;;;2.55;1.30;;;6.00;65.00;;;;;;5027237;28;20609;-67
2022/02/19 06:35:30;;;;;;;3.88;1.33;;;6.00;64.80;;;;;;5014875;28;20196;-67
2022/02/19 06:37:59;;;;;;;7.00;1.05;;;6.00;64.90;;;;;;5019832;28;20218;-67
2022/02/19 06:40:25;;;;;;;4.82;1.00;;;6.00;64.80;;;;;;5034947;28;20223;-67
2022/02/19 06:42:52;;;;;;;5.95;1.00;;;6.00;65.10;;;;;;5029595;28;20216;-67
2022/02/19 06:45:19;;;;;;;2.72;0.93;;;6.00;64.90;;;;;;5014400;28;20188;-67
2022/02/19 06:47:46;;;;;;;4.25;1.23;;;6.00;65.00;;;;;;5017026;28;20216;-68
2022/02/19 06:50:13;;;;;;;6.90;1.35;;;5.90;65.20;;;;;;5034011;28;20680;-67
2022/02/19 06:52:40;;;;;;;4.47;1.17;;;6.00;65.80;;;;;;5032421;28;20191;-67
2022/02/19 06:55:09;;;;;;;3.35;0.88;;;6.00;66.30;;;;;;5014747;28;20246;-67
2022/02/19 06:57:39;;;;;;;3.35;1.10;;;5.90;66.50;;;;;;5013946;28;20262;-73
2022/02/19 07:00:07;;;;;;;7.22;1.40;;;6.00;67.10;;;;;;5030574;28;20234;-67
2022/02/19 07:02:34;;;;;;;6.20;1.65;;;6.10;67.10;;;;;;5013864;28;20554;-69
2022/02/19 07:05:01;;;;;;;4.50;0.90;;;6.10;67.10;;;;;;5014691;28;20227;-67
2022/02/19 07:07:28;;;;;;;2.00;0.90;;;6.10;66.70;;;;;;5031844;28;20227;-67
2022/02/19 07:09:55;;;;;;;3.97;1.00;;;6.20;66.50;;;;;;5024445;28;20659;-68
2022/02/19 07:12:23;;;;;;;8.70;1.17;;;6.20;66.00;;;;;;5033780;28;20237;-68
2022/02/19 07:14:50;;;;;;;3.88;1.25;;;6.30;66.60;;;;;;5019294;28;20223;-67
2022/02/19 07:17:17;;;;;;;2.42;0.95;;;6.30;65.40;;;;;;5014220;28;20247;-68
2022/02/19 07:19:44;;;;;;;3.45;1.23;;;6.40;64.80;;;;;;5026241;28;20218;-68
2022/02/19 07:22:11;;;;;;;5.75;1.60;;;6.40;64.50;;;;;;5033972;28;20230;-68
2022/02/19 07:24:38;;;;;;;5.78;1.60;;;6.40;63.60;;;;;;5014661;28;20252;-67
2022/02/19 07:27:06;;;;;;;3.80;1.23;;;6.50;64.10;;;;;;5014216;28;20200;-67
2022/02/19 07:29:34;;;;;;;6.57;1.15;;;6.60;64.30;;;;;;5030737;28;20234;-67
2022/02/19 07:32:01;;;;;;;4.85;1.45;;;6.60;63.70;;;;;;5033767;28;20191;-67
2022/02/19 07:34:28;;;;;;;7.00;1.15;;;6.70;63.00;;;;;;5016991;28;20670;-67
2022/02/19 07:36:55;;;;;;;5.30;1.80;;;6.70;62.80;;;;;;5013525;28;20258;-68
2022/02/19 07:39:22;;;;;;;4.65;1.73;;;6.80;62.10;;;;;;5027733;28;20215;-68
2022/02/19 07:41:51;;;;;;;4.40;1.27;;;6.80;61.70;;;;;;5032879;28;20203;-68
2022/02/19 07:44:18;;;;;;;3.92;1.40;;;6.80;61.90;;;;;;5018924;28;20191;-70
2022/02/19 07:46:46;;;;;;;5.03;1.58;;;6.90;62.60;;;;;;5033448;28;20226;-67
2022/02/19 08:00:11;;;;;;;6.05;1.58;;;7.00;60.90;;;;;;5033458;28;20256;-67
2022/02/19 08:02:39;;;;;;;8.15;1.83;;;7.10;60.20;;;;;;5022969;28;20195;-67
2022/02/19 08:05:06;;;;;;;12.20;2.63;;;7.20;60.30;;;;;;5013722;28;20192;-68
2022/02/19 08:07:33;;;;;;;9.93;2.88;;;7.20;59.80;;;;;;5032873;28;20619;-67
2022/02/19 08:10:00;;;;;;;8.90;2.95;;;7.20;59.60;;;;;;5014237;28;20184;-67
2022/02/19 08:12:27;;;;;;;4.65;1.50;;;7.20;59.60;;;;;;5012918;28;20231;-67
2022/02/19 08:14:54;;;;;;;9.43;2.38;;;7.30;59.70;;;;;;5024729;28;20657;-69
2022/02/19 08:17:21;;;;;;;7.50;1.48;;;7.30;59.70;;;;;;5025120;28;20282;-67
2022/02/19 08:19:49;;;;;;;4.38;1.35;;;7.30;59.40;;;;;;5011677;28;20195;-67
2022/02/19 08:22:16;;;;;;;3.33;1.40;;;7.40;59.70;;;;;;5011155;28;20198;-69
2022/02/19 08:24:43;;;;;;;4.80;1.50;;;7.40;59.30;;;;;;5012143;28;20651;-67
2022/02/19 08:27:10;;;;;;;5.05;1.50;;;7.50;59.40;;;;;;5012928;28;20195;-67
2022/02/19 08:29:37;;;;;;;2.80;1.40;;;7.90;60.10;;;;;;5013206;28;20192;-67
2022/02/19 08:32:04;;;;;;;3.60;1.77;;;8.30;58.40;;;;;;5013301;28;20199;-67
2022/02/19 08:34:31;;;;;;;11.30;1.70;;;8.60;56.80;;;;;;5021254;28;20241;-67
2022/02/19 08:37:00;;;;;;;7.25;1.42;;;8.70;57.00;;;;;;5022913;28;20195;-67
2022/02/19 08:39:27;;;;;;;5.13;1.75;;;9.30;56.70;;;;;;5029569;28;20257;-68
2022/02/19 08:42:23;;;;;;;5.32;1.80;;;9.30;55.30;;;;;;5032179;28;20200;-68
2022/02/19 08:44:50;;;;;;;4.93;1.38;;;9.30;55.30;;;;;;5027694;28;20223;-69
2022/02/19 08:47:17;;;;;;;4.03;1.70;;;9.10;54.10;;;;;;5032271;28;20215;-68
2022/02/19 08:49:44;;;;;;;4.75;1.77;;;9.00;54.40;;;;;;5032408;28;20530;-68
2022/02/19 08:52:13;;;;;;;5.60;1.80;;;8.90;54.20;;;;;;5031313;28;20704;-68
2022/02/19 08:54:40;;;;;;;9.23;1.92;;;8.90;54.20;;;;;;5031118;28;20600;-67
2022/02/19 08:57:07;;;;;;;13.30;2.53;;;8.60;53.70;;;;;;5011946;28;20268;-69
2022/02/19 08:59:34;;;;;;;4.28;1.42;;;8.60;54.50;;;;;;5011894;28;20281;-71
2022/02/19 09:02:00;;;;;;;5.85;1.40;;;8.60;55.00;;;;;;5032017;28;20191;-67
2022/02/19 09:04:27;;;;;;;5.43;1.67;;;8.50;54.50;;;;;;5031832;28;20720;-67
2022/02/19 09:06:54;;;;;;;6.53;1.55;;;8.60;55.00;;;;;;5013530;28;20220;-67
2022/02/19 09:09:22;;;;;;;5.68;1.77;;;8.70;55.50;;;;;;5012133;28;20622;-67
2022/02/19 09:11:49;;;;;;;7.00;1.80;;;8.90;55.10;;;;;;5019654;28;20191;-67
2022/02/19 09:14:16;;;;;;;8.75;2.35;;;9.50;54.30;;;;;;5024084;28;20308;-68
2022/02/19 09:16:43;;;;;;;10.88;3.25;;;9.70;52.90;;;;;;5032334;28;20199;-68
2022/02/19 09:19:11;;;;;;;8.25;2.05;;;9.80;53.40;;;;;;5021251;28;20215;-67
2022/02/19 09:21:40;;;;;;;6.90;1.77;;;9.90;52.40;;;;;;5012018;28;20195;-67
2022/02/19 09:24:07;;;;;;;5.65;2.25;;;9.90;52.40;;;;;;5013433;28;20685;-68
2022/02/19 09:26:35;;;;;;;3.45;1.85;;;10.00;51.60;;;;;;5030791;28;20226;-68
2022/02/19 09:29:02;;;;;;;6.72;1.90;;;10.10;51.40;;;;;;5023555;28;20271;-68
2022/02/19 09:31:29;;;;;;;10.05;1.90;;;10.30;50.30;;;;;;5012448;28;20226;-68
2022/02/19 09:33:57;;;;;;;11.45;2.38;;;10.30;49.90;;;;;;5022305;28;20281;-68
2022/02/19 09:36:24;;;;;;;11.90;5.82;;;10.50;50.10;;;;;;5036079;28;20191;-67
2022/02/19 09:38:50;;;;;;;6.43;2.35;;;10.60;50.00;;;;;;5029994;28;20753;-68
2022/02/19 09:41:18;;;;;;;5.55;1.75;;;10.90;49.60;;;;;;5022536;28;20183;-68
2022/02/19 09:43:46;;;;;;;8.80;2.40;;;11.40;48.70;;;;;;5018181;28;20196;-67
2022/02/19 09:46:15;;;;;;;7.38;2.20;;;11.60;49.10;;;;;;5016158;28;20268;-68
2022/02/19 09:48:44;;;;;;;5.38;1.92;;;11.70;48.00;;;;;;5031783;28;20219;-68
2022/02/19 09:51:12;;;;;;;3.60;1.40;;;11.70;45.50;;;;;;5035623;28;20191;-68
2022/02/19 09:53:40;;;;;;;9.00;1.45;;;11.60;45.20;;;;;;5026198;28;20195;-68
2022/02/19 09:56:08;;;;;;;8.55;2.00;;;11.50;45.50;;;;;;5027034;28;20557;-67
2022/02/19 09:58:35;;;;;;;13.25;2.33;;;11.40;45.50;;;;;;5031620;28;20250;-68
2022/02/19 10:01:19;;;;;;;6.78;1.70;;;11.30;45.20;;;;;;5028601;28;20652;-67
2022/02/19 10:03:46;;;;;;;13.93;2.33;;;11.20;45.40;;;;;;5030473;28;20217;-68
2022/02/19 10:06:14;;;;;;;7.72;2.55;;;11.10;45.30;;;;;;5033499;28;20195;-67
2022/02/19 10:08:42;;;;;;;7.22;2.10;;;10.80;44.80;;;;;;5035342;28;20245;-68
2022/02/19 10:11:13;;;;;;;5.45;1.83;;;10.60;45.60;;;;;;5028394;28;20594;-68
2022/02/19 10:13:41;;;;;;;6.70;1.80;;;10.50;45.90;;;;;;5027423;28;20229;-67
2022/02/19 10:16:10;;;;;;;7.57;1.70;;;10.50;45.90;;;;;;5033937;28;20560;-67
2022/02/19 10:18:41;;;;;;;5.43;2.22;;;10.50;46.60;;;;;;5033608;28;20269;-68
2022/02/19 10:21:15;;;;;;;6.88;1.85;;;10.50;45.80;;;;;;5035048;28;20631;-67
2022/02/19 10:23:43;;;;;;;6.95;2.42;;;10.60;45.80;;;;;;5017742;28;20187;-68
2022/02/19 10:26:11;;;;;;;5.10;1.52;;;10.80;46.60;;;;;;5015229;28;20590;-68
2022/02/19 10:28:38;;;;;;;6.63;1.85;;;11.20;46.50;;;;;;5021566;28;20249;-67
2022/02/19 10:31:16;;;;;;;6.22;2.22;;;11.70;46.40;;;;;;5015325;28;20334;-68
2022/02/19 10:33:45;;;;;;;5.68;1.73;;;12.10;44.80;;;;;;5015114;28;20196;-69
2022/02/19 10:36:18;;;;;;;7.20;1.60;;;12.50;44.20;;;;;;5014965;28;20187;-68
2022/02/19 10:38:56;;;;;;;4.43;2.08;;;13.80;42.80;;;;;;5014508;28;20293;-68
2022/02/19 10:41:34;;;;;;;7.43;2.73;;;16.30;41.60;;;;;;5029408;28;20256;-68
2022/02/19 10:44:20;;;;;;;8.93;2.40;;;19.50;35.50;;;;;;5013752;28;20500;-68
2022/02/19 10:46:47;;;;;;;5.60;2.10;;;20.00;31.60;;;;;;5014456;28;20442;-68
2022/02/19 10:49:15;;;;;;;4.17;1.47;;;19.50;30.70;;;;;;5014731;28;20485;-69
2022/02/19 10:51:43;;;;;;;6.00;2.13;;;18.60;30.10;;;;;;5015888;28;20496;-68
2022/02/19 10:54:11;;;;;;;7.23;1.90;;;17.70;29.40;;;;;;5024901;28;20969;-69
2022/02/19 10:56:39;;;;;;;5.00;1.60;;;16.90;29.70;;;;;;5027828;28;20446;-67
2022/02/19 10:59:08;;;;;;;4.23;1.90;;;16.40;30.30;;;;;;5034164;28;20481;-68
2022/02/19 11:01:42;;;;;;;7.37;1.73;;;15.80;29.40;;;;;;5034196;28;20476;-68
2022/02/19 11:04:11;;;;;;;12.10;2.20;;;15.20;30.20;;;;;;5024967;28;20496;-67
2022/02/19 11:06:39;;;;;;;4.20;1.40;;;14.80;31.00;;;;;;5021631;28;20888;-67
2022/02/19 11:09:08;;;;;;;4.97;1.40;;;15.20;34.30;;;;;;5030694;28;20450;-67
2022/02/19 11:11:36;;;;;;;3.90;1.47;;;16.80;34.80;;;;;;5028737;28;20450;-69
2022/02/19 11:14:04;;;;;;;4.27;1.17;;;20.00;30.00;;;;;;5031362;28;20469;-68
2022/02/19 11:16:32;;;;;;;10.83;2.63;;;20.70;26.90;;;;;;5027605;28;20515;-69
2022/02/19 11:19:00;;;;;;;7.30;1.90;;;20.70;26.50;;;;;;5031430;28;20567;-68
2022/02/19 11:21:27;;;;;;;6.63;1.70;;;20.90;26.40;;;;;;5030092;28;20442;-68
2022/02/19 11:23:59;;;;;;;7.77;2.63;;;20.60;25.50;;;;;;5031001;28;20504;-68
2022/02/19 11:26:26;;;;;;;7.50;2.30;;;21.40;26.50;;;;;;5030141;28;20542;-68
2022/02/19 11:28:57;;;;;;;4.40;2.73;;;21.30;24.70;;;;;;5023546;28;20508;-70
2022/02/19 11:31:29;;;;;;;6.53;2.87;;;20.40;24.30;;;;;;5025275;28;20440;-67
2022/02/19 11:33:59;;;;;;;10.47;4.23;;;19.60;25.20;;;;;;5030196;28;20446;-68
2022/02/19 11:36:27;;;;;;;11.30;3.33;;;19.40;26.30;;;;;;5029480;28;20437;-67
2022/02/19 11:38:57;;;;;;;6.90;1.67;;;20.10;26.10;;;;;;5030306;28;20493;-68
2022/02/19 11:41:35;;;;;;;10.53;5.60;;;20.20;26.20;;;;;;5029997;28;20701;-68
2022/02/19 11:44:03;;;;;;;10.43;3.13;;;20.00;26.20;;;;;;5030169;28;20449;-73
2022/02/19 11:46:35;;;;;;;5.70;2.00;;;19.80;24.80;;;;;;5030322;28;20479;-67
2022/02/19 11:49:22;;;;;;;6.17;1.87;;;19.00;26.10;;;;;;5030106;28;20488;-68
2022/02/19 11:52:14;;;;;;;4.33;1.30;;;18.60;26.60;;;;;;5029410;28;20452;-67
2022/02/19 11:54:43;;;;;;;7.00;2.70;;;18.30;27.30;;;;;;5029631;28;20460;-68
2022/02/19 11:57:14;;;;;;;3.27;1.70;;;18.60;28.80;;;;;;5030429;28;20454;-67
2022/02/19 11:59:44;;;;;;;8.77;1.70;;;21.70;30.60;;;;;;5029224;28;20486;-69
2022/02/19 12:02:16;;;;;;;5.00;2.50;;;25.30;27.10;;;;;;5029827;28;20442;-70
2022/02/19 12:04:43;;;;;;;6.50;2.13;;;28.20;24.10;;;;;;5030451;28;20449;-68
2022/02/19 12:07:14;;;;;;;7.73;2.13;;;28.70;20.50;;;;;;5029288;28;20814;-68
2022/02/19 12:10:04;;;;;;;7.50;2.00;;;27.10;19.30;;;;;;5029884;28;20450;-68
2022/02/19 12:13:07;;;;;;;9.20;2.73;;;24.70;19.20;;;;;;5028278;28;20477;-68
2022/02/19 12:15:35;;;;;;;7.07;2.00;;;22.40;20.10;;;;;;5028933;28;20560;-68
2022/02/19 12:18:02;;;;;;;6.90;2.20;;;20.80;21.80;;;;;;5029411;28;20457;-68
2022/02/19 12:20:32;;;;;;;5.13;2.00;;;19.70;23.50;;;;;;5028756;28;20583;-67
2022/02/19 12:23:02;;;;;;;5.17;1.80;;;20.70;25.10;;;;;;5029013;28;20825;-69
2022/02/19 12:26:07;;;;;;;4.47;2.00;;;23.20;25.40;;;;;;5029205;28;20430;-68
2022/02/19 12:28:36;;;;;;;3.90;1.57;;;25.40;22.20;;;;;;5027910;28;20452;-68
2022/02/19 12:31:15;;;;;;;4.43;2.07;;;27.60;21.10;;;;;;5028521;28;20496;-69
2022/02/19 12:33:44;;;;;;;4.53;1.97;;;28.50;19.10;;;;;;5026713;28;20520;-69
2022/02/19 12:36:12;;;;;;;5.60;1.77;;;29.80;18.30;;;;;;5028892;28;20457;-71
2022/02/19 12:38:44;;;;;;;5.20;2.00;;;29.40;16.80;;;;;;5028084;28;20962;-70
2022/02/19 12:41:13;;;;;;;5.67;1.73;;;29.20;17.40;;;;;;5028521;28;21113;-68
2022/02/19 12:43:40;;;;;;;4.17;1.83;;;28.80;16.70;;;;;;5025106;28;20460;-69
2022/02/19 12:46:07;;;;;;;6.00;1.80;;;28.60;17.40;;;;;;5026394;28;20450;-68
2022/02/19 12:48:34;;;;;;;3.90;1.70;;;27.60;16.80;;;;;;5028492;28;20794;-70
2022/02/19 12:51:01;;;;;;;3.43;1.40;;;26.20;16.70;;;;;;5028483;28;20450;-69
2022/02/19 12:53:29;;;;;;;3.83;1.80;;;24.70;17.40;;;;;;5028786;28;20442;-69
2022/02/19 12:55:56;;;;;;;3.90;1.50;;;23.40;17.60;;;;;;5027793;28;20874;-68
2022/02/19 12:58:25;;;;;;;7.73;1.80;;;22.20;17.80;;;;;;5027089;28;20512;-68
2022/02/19 13:00:53;;;;;;;4.97;1.20;;;20.60;18.80;;;;;;5028079;28;21035;-68
2022/02/19 13:03:20;;;;;;;9.17;1.43;;;19.50;19.90;;;;;;5028611;28;20798;-70
2022/02/19 13:05:54;;;;;;;4.10;1.43;;;18.40;20.70;;;;;;5028454;28;20840;-69
2022/02/19 13:08:21;;;;;;;4.23;1.53;;;17.40;21.30;;;;;;5031838;28;20445;-67
2022/02/19 13:10:50;;;;;;;3.67;1.90;;;16.60;22.40;;;;;;5032923;28;20855;-69